• Join FlightAware (Why Join?)
  • Login
  • US Flag 
03:28PM EDT


 

Airport Tracker/Info


-or-


 

Live Flight TrackerFlight Track Log ✈ N52989 ✈ 07-May-2013 ✈ KMQO - KCMA

Flight Track Log - Related Links

Times and Time Zones

All times are in EDT time to prevent confusion due to time zone crossing. See the N52989 flight status page for this flight to view local times or setup timezone preferences in your user account.

Time Position Orientation Groundspeed Altitude Reporting Facility
EDT Latitude Longitude Course Direction KTS MPH feet Rate Location/Type
04:33PM 34.6419 -120.2933 105° East 94 108 5,000  Level Los Angeles Center
04:34PM 34.6361 -120.2664 105° East 95 109 5,600 600 Climbing Los Angeles Center
04:35PM 34.6292 -120.2347 105° East 93 107 6,200 540 Climbing Los Angeles Center
04:36PM 34.6208 -120.2061 109° East 93 107 6,700 540 Climbing Los Angeles Center
04:37PM 34.6119 -120.1750 109° East 94 108 7,300 420 Climbing Los Angeles Center
04:38PM 34.6044 -120.1408 105° East 106 122 7,600 120 Climbing Los Angeles Center
04:39PM 34.5953 -120.1097 110° East 123 142 7,600 -120 Level Los Angeles Center
04:40PM 34.5836 -120.0664 108° East 129 148 7,400 -300 Descending Los Angeles Center
04:41PM 34.5706 -120.0158 107° East 137 158 7,000 -240 Descending Los Angeles Center
04:41PM 34.5686 -120.0022 100° East 135 155 7,100 60 Climbing Los Angeles Center
04:42PM 34.5619 -119.9769 108° East 129 148 7,100 -120 Level Los Angeles Center
04:42PM 34.5589 -119.9614 103° East 130 150 7,000  Descending Los Angeles Center
04:43PM 34.5497 -119.9311 110° East 126 145 7,100  Climbing Los Angeles Center
04:43PM 34.5469 -119.9217 110° East 126 145 7,000  Descending Los Angeles Center
04:44PM 34.5394 -119.8953 109° East 128 147 7,100 60 Climbing Los Angeles Center
04:45PM 34.5369 -119.8806 102° East 128 147 7,100 -120 Level Los Angeles Center
04:45PM 34.5314 -119.8589 107° East 127 146 7,000  Descending Los Angeles Center
04:46PM 34.5264 -119.8392 107° East 128 147 7,100 60 Climbing Los Angeles Center
04:46PM 34.5197 -119.8156 109° East 127 146 7,100 -120 Level Los Angeles Center
04:47PM 34.5128 -119.7914 109° East 127 146 7,000  Descending Los Angeles Center
04:47PM 34.5094 -119.7797 109° East 128 147 7,100 60 Climbing Los Angeles Center
04:48PM 34.5022 -119.7497 106° East 128 147 7,100  Level Los Angeles Center
04:48PM 34.4978 -119.7367 112° Southeast 129 148 7,100  Level Los Angeles Center
04:49PM 34.4825 -119.7136 129° Southeast 130 150 7,100  Level Los Angeles Center
04:49PM 34.4725 -119.7006 133° Southeast 131 151 7,100  Level Los Angeles Center
04:50PM 34.4567 -119.6758 128° Southeast 132 152 7,100  Level Los Angeles Center
04:50PM 34.4506 -119.6606 116° Southeast 131 151 7,100  Level Los Angeles Center
04:51PM 34.4361 -119.6244 116° Southeast 118 136 7,100  Level Los Angeles Center
04:52PM 34.4075 -119.5833 130° Southeast 130 150 7,100 -60 Level Los Angeles Center
04:53PM 34.3883 -119.5472 123° Southeast 129 148 7,000 -360 Descending Los Angeles Center
04:54PM 34.3689 -119.5083 121° Southeast 132 152 6,500 -480 Descending Los Angeles Center
04:55PM 34.3653 -119.4806 99° East 137 158 6,300 -420 Descending Los Angeles Center
04:55PM 34.3539 -119.4661 134° Southeast 134 154 6,100 -540 Descending Los Angeles Center
04:56PM 34.3497 -119.4386 100° East 139 160 5,800 -2,520 Descending Los Angeles Center
04:56PM 34.3478 -119.4156 96° East 139 160 3,500 -540 Descending Los Angeles Center
04:57PM 34.3314 -119.3950 134° Southeast 142 163 5,300  Climbing Los Angeles Center
04:57PM 34.3322 -119.3669 88° East 142 163 3,500 -420 Descending Los Angeles Center
04:58PM 34.3158 -119.3531 145° Southeast 144 166 4,900  Climbing Los Angeles Center
04:58PM 34.3106 -119.3203 101° East 143 165 3,500 -420 Descending Los Angeles Center
04:59PM 34.2994 -119.3089 140° Southeast 137 158 4,500 660 Climbing Los Angeles Center
04:59PM 34.2894 -119.2856 117° Southeast 137 158 4,200 -540 Descending Los Angeles Center
05:00PM 34.2903 -119.2675 87° East 129 148 4,000 -120 Descending Los Angeles Center
05:00PM 34.2769 -119.2475 129° Southeast 135 155 4,100 120 Climbing Los Angeles Center